Terminal Aerodrome Forecast
Issued by NWS

Home | Current Version | Previous Version | Text Only | Print | Product List | Glossary Off
Versions: 1 2 3 4 5 6 7 8 9 10 11 12 13 14 15 16 17 18 19 20

000
FTUS42 KMHX 011136
TAFISO
TAF
KISO 011136Z 0112/0212 35006KT 6SM BR VCSH SCT012 BKN020
     FM011600 01014G22KT 6SM SHRA BR OVC012
     FM012300 36005KT P6SM SCT025 BKN035
     FM020600 33004KT P6SM SKC
      AMD LTD TO CLD VIS AND WIND=

USA.gov is the U.S. government's official web portal to all federal, state and local government web resources and services.